This is the latest recevied weather packets stored in our database for station/object S53BL-10. If no packets are shown the sender has not sent any weather packets the latest 10 day(s).
| Time | Temp. | Humidity | Pressure | Rain* | Wind** | Luminosity | Snow |
|---|---|---|---|---|---|---|---|
| 1777617467 | 6.11° C | 66% | 1025.4 hPa | - | - | - | - |
| 1777616566 | 5° C | 70% | 1025.3 hPa | - | - | - | - |
| 1777615666 | 3.33° C | 73% | 1025.3 hPa | - | - | - | - |
| 1777614765 | 3.33° C | 74% | 1025.3 hPa | - | - | - | - |
| 1777613864 | 2.78° C | 75% | 1025.2 hPa | - | - | - | - |
| 1777612963 | 2.22° C | 80% | 1025.1 hPa | - | - | - | - |
| 1777612063 | 2.22° C | 80% | 1025.1 hPa | - | - | - | - |
| 1777611162 | 1.67° C | 84% | 1025 hPa | - | - | - | - |
| 1777610261 | 1.67° C | 80% | 1024.8 hPa | - | - | - | - |
| 1777609360 | 1.67° C | 75% | 1024.8 hPa | - | - | - | - |
| 1777608459 | 1.67° C | 77% | 1024.6 hPa | - | - | - | - |
| 1777607559 | 1.67° C | 79% | 1024.6 hPa | - | - | - | - |
| 1777606658 | 1.67° C | 75% | 1024.6 hPa | - | - | - | - |
| 1777605757 | 2.22° C | 74% | 1024.5 hPa | - | - | - | - |
| 1777604856 | 2.22° C | 74% | 1024.4 hPa | - | - | - | - |
| 1777603955 | 2.22° C | 72% | 1024.6 hPa | - | - | - | - |
| 1777603054 | 2.78° C | 72% | 1024.7 hPa | - | - | - | - |
| 1777602153 | 2.78° C | 73% | 1024.6 hPa | - | - | - | - |
| 1777601253 | 2.78° C | 73% | 1024.7 hPa | - | - | - | - |
| 1777600352 | 3.33° C | 71% | 1024.7 hPa | - | - | - | - |
| 1777584138 | 7.22° C | 47% | 1024.8 hPa | - | - | - | - |
| 1777583236 | 7.78° C | 44% | 1024.7 hPa | - | - | - | - |
| 1777580534 | 8.89° C | 42% | 1024.3 hPa | - | - | - | - |
| 1777577831 | 9.44° C | 40% | 1023.7 hPa | - | - | - | - |
| 1777574228 | 11.11° C | 33% | 1022.9 hPa | - | - | - | - |
* Rain since midnight (hover to see other rain measurements)
** Current wind speed in m/s (hover to see current wind gust speed)